sensor_id;sensor_type;location;lat;lon;timestamp;pressure;altitude;pressure_sealevel;temperature;humidity
20696;BME280;10507;52.754;13.040;2023-05-25T00:00:45;101716.75;;;11.41;96.33
20696;BME280;10507;52.754;13.040;2023-05-25T00:03:28;101717.16;;;11.31;96.74
20696;BME280;10507;52.754;13.040;2023-05-25T00:05:57;101720.16;;;11.21;97.41
20696;BME280;10507;52.754;13.040;2023-05-25T00:08:28;101718.72;;;11.11;97.82
20696;BME280;10507;52.754;13.040;2023-05-25T00:10:56;101729.53;;;11.08;97.90
20696;BME280;10507;52.754;13.040;2023-05-25T00:13:27;101737.03;;;10.97;98.39
20696;BME280;10507;52.754;13.040;2023-05-25T00:15:55;101748.59;;;10.97;98.73
20696;BME280;10507;52.754;13.040;2023-05-25T00:18:23;101746.19;;;10.90;98.40
20696;BME280;10507;52.754;13.040;2023-05-25T00:20:52;101736.72;;;10.79;99.44
20696;BME280;10507;52.754;13.040;2023-05-25T00:23:20;101737.94;;;10.69;99.70
20696;BME280;10507;52.754;13.040;2023-05-25T00:26:12;101737.41;;;10.58;99.88
20696;BME280;10507;52.754;13.040;2023-05-25T00:28:54;101741.94;;;10.56;100.00
20696;BME280;10507;52.754;13.040;2023-05-25T00:31:22;101744.06;;;10.45;100.00
20696;BME280;10507;52.754;13.040;2023-05-25T00:33:50;101734.66;;;10.33;100.00
20696;BME280;10507;52.754;13.040;2023-05-25T00:36:18;101748.09;;;10.31;100.00
20696;BME280;10507;52.754;13.040;2023-05-25T00:38:45;101757.97;;;10.26;100.00
20696;BME280;10507;52.754;13.040;2023-05-25T00:41:16;101754.69;;;10.18;100.00
20696;BME280;10507;52.754;13.040;2023-05-25T00:43:44;101762.91;;;10.10;100.00
20696;BME280;10507;52.754;13.040;2023-05-25T00:46:13;101765.81;;;10.03;100.00
20696;BME280;10507;52.754;13.040;2023-05-25T00:48:42;101766.94;;;9.95;100.00
20696;BME280;10507;52.754;13.040;2023-05-25T00:51:11;101781.03;;;9.99;100.00
20696;BME280;10507;52.754;13.040;2023-05-25T00:53:41;101785.53;;;9.97;100.00
20696;BME280;10507;52.754;13.040;2023-05-25T00:56:18;101775.94;;;9.91;100.00
20696;BME280;10507;52.754;13.040;2023-05-25T00:58:50;101784.00;;;9.88;100.00
20696;BME280;10507;52.754;13.040;2023-05-25T01:01:21;101791.03;;;9.91;100.00
20696;BME280;10507;52.754;13.040;2023-05-25T01:03:50;101792.97;;;9.86;100.00
20696;BME280;10507;52.754;13.040;2023-05-25T01:06:21;101792.28;;;9.79;100.00
20696;BME280;10507;52.754;13.040;2023-05-25T01:08:52;101789.72;;;9.76;100.00
20696;BME280;10507;52.754;13.040;2023-05-25T01:11:26;101788.97;;;9.71;100.00
20696;BME280;10507;52.754;13.040;2023-05-25T01:13:58;101795.47;;;9.61;100.00
20696;BME280;10507;52.754;13.040;2023-05-25T01:16:28;101806.25;;;9.56;100.00
20696;BME280;10507;52.754;13.040;2023-05-25T01:18:57;101794.97;;;9.46;100.00
20696;BME280;10507;52.754;13.040;2023-05-25T01:21:34;101821.63;;;9.46;100.00
20696;BME280;10507;52.754;13.040;2023-05-25T01:24:11;101798.88;;;9.33;100.00
20696;BME280;10507;52.754;13.040;2023-05-25T01:26:48;101807.00;;;9.28;100.00
20696;BME280;10507;52.754;13.040;2023-05-25T01:29:25;101812.34;;;9.28;100.00
20696;BME280;10507;52.754;13.040;2023-05-25T01:31:56;101818.59;;;9.26;100.00
20696;BME280;10507;52.754;13.040;2023-05-25T01:34:29;101824.00;;;9.23;100.00
20696;BME280;10507;52.754;13.040;2023-05-25T01:36:59;101836.44;;;9.24;100.00
20696;BME280;10507;52.754;13.040;2023-05-25T01:39:27;101830.38;;;9.17;100.00
20696;BME280;10507;52.754;13.040;2023-05-25T01:41:58;101825.13;;;9.14;100.00
20696;BME280;10507;52.754;13.040;2023-05-25T01:44:30;101814.66;;;9.06;100.00
20696;BME280;10507;52.754;13.040;2023-05-25T01:47:02;101836.72;;;9.11;100.00
20696;BME280;10507;52.754;13.040;2023-05-25T01:49:41;101846.53;;;9.11;100.00
20696;BME280;10507;52.754;13.040;2023-05-25T01:52:17;101871.28;;;9.14;100.00
20696;BME280;10507;52.754;13.040;2023-05-25T01:54:49;101856.41;;;9.06;100.00
20696;BME280;10507;52.754;13.040;2023-05-25T01:57:19;101873.19;;;9.09;100.00
20696;BME280;10507;52.754;13.040;2023-05-25T01:59:50;101870.59;;;9.06;100.00
20696;BME280;10507;52.754;13.040;2023-05-25T02:02:21;101857.47;;;8.99;100.00
20696;BME280;10507;52.754;13.040;2023-05-25T02:04:52;101876.06;;;9.00;100.00
20696;BME280;10507;52.754;13.040;2023-05-25T02:07:22;101884.94;;;9.01;100.00
20696;BME280;10507;52.754;13.040;2023-05-25T02:09:52;101878.88;;;8.94;100.00
20696;BME280;10507;52.754;13.040;2023-05-25T02:12:20;101863.19;;;8.82;100.00
20696;BME280;10507;52.754;13.040;2023-05-25T02:14:48;101880.88;;;8.86;100.00
20696;BME280;10507;52.754;13.040;2023-05-25T02:17:19;101880.97;;;8.81;100.00
20696;BME280;10507;52.754;13.040;2023-05-25T02:19:47;101857.16;;;8.73;100.00
20696;BME280;10507;52.754;13.040;2023-05-25T02:22:19;101857.25;;;8.70;100.00
20696;BME280;10507;52.754;13.040;2023-05-25T02:24:55;101871.44;;;8.69;100.00
20696;BME280;10507;52.754;13.040;2023-05-25T02:27:26;101877.84;;;8.61;100.00
20696;BME280;10507;52.754;13.040;2023-05-25T02:29:54;101900.91;;;8.62;100.00
20696;BME280;10507;52.754;13.040;2023-05-25T02:32:22;101888.59;;;8.56;100.00
20696;BME280;10507;52.754;13.040;2023-05-25T02:34:52;101896.59;;;8.56;100.00
20696;BME280;10507;52.754;13.040;2023-05-25T02:37:20;101920.44;;;8.61;100.00
20696;BME280;10507;52.754;13.040;2023-05-25T02:39:49;101929.34;;;8.60;100.00
20696;BME280;10507;52.754;13.040;2023-05-25T02:42:17;101935.56;;;8.59;100.00
20696;BME280;10507;52.754;13.040;2023-05-25T02:44:45;101916.22;;;8.52;100.00
20696;BME280;10507;52.754;13.040;2023-05-25T02:47:14;101910.16;;;8.44;100.00
20696;BME280;10507;52.754;13.040;2023-05-25T02:49:43;101907.59;;;8.38;100.00
20696;BME280;10507;52.754;13.040;2023-05-25T02:52:11;101923.53;;;8.41;100.00
20696;BME280;10507;52.754;13.040;2023-05-25T02:54:41;101920.06;;;8.36;100.00
20696;BME280;10507;52.754;13.040;2023-05-25T02:57:14;101927.16;;;8.37;100.00
20696;BME280;10507;52.754;13.040;2023-05-25T02:59:46;101928.97;;;8.35;100.00
20696;BME280;10507;52.754;13.040;2023-05-25T03:02:14;101936.09;;;8.32;100.00
20696;BME280;10507;52.754;13.040;2023-05-25T03:04:46;101950.28;;;8.31;100.00
20696;BME280;10507;52.754;13.040;2023-05-25T03:07:22;101944.94;;;8.33;100.00
20696;BME280;10507;52.754;13.040;2023-05-25T03:09:57;101925.59;;;8.25;100.00
20696;BME280;10507;52.754;13.040;2023-05-25T03:12:27;101959.19;;;8.30;100.00
20696;BME280;10507;52.754;13.040;2023-05-25T03:14:55;101986.66;;;8.32;100.00
20696;BME280;10507;52.754;13.040;2023-05-25T03:17:23;101970.72;;;8.29;100.00
20696;BME280;10507;52.754;13.040;2023-05-25T03:19:51;101986.53;;;8.39;100.00
20696;BME280;10507;52.754;13.040;2023-05-25T03:22:19;102017.41;;;8.49;100.00
20696;BME280;10507;52.754;13.040;2023-05-25T03:24:47;102034.97;;;8.59;100.00
20696;BME280;10507;52.754;13.040;2023-05-25T03:27:19;102031.38;;;8.62;100.00
20696;BME280;10507;52.754;13.040;2023-05-25T03:29:52;102053.31;;;8.74;100.00
20696;BME280;10507;52.754;13.040;2023-05-25T03:32:23;102052.28;;;8.82;100.00
20696;BME280;10507;52.754;13.040;2023-05-25T03:35:02;102055.69;;;8.88;100.00
20696;BME280;10507;52.754;13.040;2023-05-25T03:37:30;102050.31;;;8.90;100.00
20696;BME280;10507;52.754;13.040;2023-05-25T03:40:03;102044.88;;;8.96;100.00
20696;BME280;10507;52.754;13.040;2023-05-25T03:42:38;102059.84;;;9.02;100.00
20696;BME280;10507;52.754;13.040;2023-05-25T03:45:08;102054.47;;;9.05;100.00
20696;BME280;10507;52.754;13.040;2023-05-25T03:47:37;102040.25;;;9.04;100.00
20696;BME280;10507;52.754;13.040;2023-05-25T03:50:17;102007.44;;;9.02;100.00
20696;BME280;10507;52.754;13.040;2023-05-25T03:53:11;102010.84;;;9.09;100.00
20696;BME280;10507;52.754;13.040;2023-05-25T03:55:39;102010.78;;;9.12;100.00
20696;BME280;10507;52.754;13.040;2023-05-25T03:58:07;102023.09;;;9.18;100.00
20696;BME280;10507;52.754;13.040;2023-05-25T04:00:37;102021.13;;;9.26;100.00
20696;BME280;10507;52.754;13.040;2023-05-25T04:03:07;102017.44;;;9.33;100.00
20696;BME280;10507;52.754;13.040;2023-05-25T04:05:45;102014.59;;;9.39;100.00
20696;BME280;10507;52.754;13.040;2023-05-25T04:08:18;101998.66;;;9.38;100.00
20696;BME280;10507;52.754;13.040;2023-05-25T04:10:46;102014.50;;;9.44;100.00
20696;BME280;10507;52.754;13.040;2023-05-25T04:13:14;102032.19;;;9.48;100.00
20696;BME280;10507;52.754;13.040;2023-05-25T04:15:44;102049.66;;;9.61;100.00
20696;BME280;10507;52.754;13.040;2023-05-25T04:18:12;102029.19;;;9.62;100.00
20696;BME280;10507;52.754;13.040;2023-05-25T04:20:40;102053.75;;;9.76;100.00
20696;BME280;10507;52.754;13.040;2023-05-25T04:23:33;102073.09;;;9.84;100.00
20696;BME280;10507;52.754;13.040;2023-05-25T04:26:01;102070.34;;;9.89;100.00
20696;BME280;10507;52.754;13.040;2023-05-25T04:28:31;102095.69;;;10.07;100.00
20696;BME280;10507;52.754;13.040;2023-05-25T04:31:03;102076.69;;;10.19;100.00
20696;BME280;10507;52.754;13.040;2023-05-25T04:33:31;102088.81;;;10.34;100.00
20696;BME280;10507;52.754;13.040;2023-05-25T04:36:15;102041.47;;;10.40;100.00
20696;BME280;10507;52.754;13.040;2023-05-25T04:38:47;102068.50;;;10.61;100.00
20696;BME280;10507;52.754;13.040;2023-05-25T04:41:23;102076.09;;;10.76;100.00
20696;BME280;10507;52.754;13.040;2023-05-25T04:43:51;102097.56;;;11.05;100.00
20696;BME280;10507;52.754;13.040;2023-05-25T04:46:37;102204.69;;;12.20;100.00
20696;BME280;10507;52.754;13.040;2023-05-25T04:49:09;102159.63;;;13.37;99.46
20696;BME280;10507;52.754;13.040;2023-05-25T04:51:41;102120.03;;;14.31;95.06
20696;BME280;10507;52.754;13.040;2023-05-25T04:54:13;101971.75;;;15.02;89.68
20696;BME280;10507;52.754;13.040;2023-05-25T04:56:43;101973.00;;;16.04;85.73
20696;BME280;10507;52.754;13.040;2023-05-25T04:59:19;101712.81;;;16.16;81.75
20696;BME280;10507;52.754;13.040;2023-05-25T05:01:49;101771.16;;;16.80;80.20
20696;BME280;10507;52.754;13.040;2023-05-25T05:04:20;101757.78;;;17.09;79.03
20696;BME280;10507;52.754;13.040;2023-05-25T05:06:53;101673.78;;;17.30;77.66
20696;BME280;10507;52.754;13.040;2023-05-25T05:09:38;101659.50;;;17.42;77.54
20696;BME280;10507;52.754;13.040;2023-05-25T05:12:13;101558.47;;;17.32;78.07
20696;BME280;10507;52.754;13.040;2023-05-25T05:14:49;101461.94;;;17.35;77.45
20696;BME280;10507;52.754;13.040;2023-05-25T05:17:23;101602.78;;;17.71;77.22
20696;BME280;10507;52.754;13.040;2023-05-25T05:19:58;101642.97;;;18.04;76.70
20696;BME280;10507;52.754;13.040;2023-05-25T05:22:27;101674.78;;;18.55;74.99
20696;BME280;10507;52.754;13.040;2023-05-25T05:24:55;101438.69;;;18.27;74.57
20696;BME280;10507;52.754;13.040;2023-05-25T05:27:31;101357.97;;;17.70;76.05
20696;BME280;10507;52.754;13.040;2023-05-25T05:30:05;101665.81;;;18.67;75.52
20696;BME280;10507;52.754;13.040;2023-05-25T05:32:35;101615.78;;;18.87;74.82
20696;BME280;10507;52.754;13.040;2023-05-25T05:35:04;101562.28;;;19.16;74.14
20696;BME280;10507;52.754;13.040;2023-05-25T05:37:35;101556.34;;;19.61;72.70
20696;BME280;10507;52.754;13.040;2023-05-25T05:40:05;101345.03;;;19.01;73.75
20696;BME280;10507;52.754;13.040;2023-05-25T05:42:33;101462.03;;;19.18;74.53
20696;BME280;10507;52.754;13.040;2023-05-25T05:45:03;101569.38;;;19.56;74.23
20696;BME280;10507;52.754;13.040;2023-05-25T05:47:32;101498.56;;;19.97;72.17
20696;BME280;10507;52.754;13.040;2023-05-25T05:50:05;101583.41;;;20.34;71.97
20696;BME280;10507;52.754;13.040;2023-05-25T05:52:39;101670.41;;;20.80;71.30
20696;BME280;10507;52.754;13.040;2023-05-25T05:55:08;101614.22;;;21.27;69.58
20696;BME280;10507;52.754;13.040;2023-05-25T05:57:36;101632.53;;;21.58;68.63
20696;BME280;10507;52.754;13.040;2023-05-25T06:00:14;101558.16;;;21.71;68.51
20696;BME280;10507;52.754;13.040;2023-05-25T06:02:59;101700.81;;;22.33;67.99
20696;BME280;10507;52.754;13.040;2023-05-25T06:05:29;101389.50;;;21.93;67.62
20696;BME280;10507;52.754;13.040;2023-05-25T06:08:24;101261.97;;;22.21;65.92
20696;BME280;10507;52.754;13.040;2023-05-25T06:10:53;101269.91;;;20.87;69.84
20696;BME280;10507;52.754;13.040;2023-05-25T06:13:26;101392.53;;;21.14;70.25
20696;BME280;10507;52.754;13.040;2023-05-25T06:16:02;101352.88;;;21.55;68.75
20696;BME280;10507;52.754;13.040;2023-05-25T06:18:32;101317.63;;;21.65;68.63
20696;BME280;10507;52.754;13.040;2023-05-25T06:21:08;101265.72;;;21.68;68.36
20696;BME280;10507;52.754;13.040;2023-05-25T06:23:41;101147.56;;;21.21;68.95
20696;BME280;10507;52.754;13.040;2023-05-25T06:26:21;101505.09;;;22.20;67.91
20696;BME280;10507;52.754;13.040;2023-05-25T06:28:50;101286.22;;;21.40;69.36
20696;BME280;10507;52.754;13.040;2023-05-25T06:31:20;101392.03;;;21.85;68.66
20696;BME280;10507;52.754;13.040;2023-05-25T06:33:50;101368.94;;;22.21;67.20
20696;BME280;10507;52.754;13.040;2023-05-25T06:36:28;101303.88;;;22.39;66.40
20696;BME280;10507;52.754;13.040;2023-05-25T06:39:00;101197.06;;;22.07;66.79
20696;BME280;10507;52.754;13.040;2023-05-25T06:41:38;101194.59;;;22.34;66.44
20696;BME280;10507;52.754;13.040;2023-05-25T06:44:32;101440.41;;;22.75;66.56
20696;BME280;10507;52.754;13.040;2023-05-25T06:47:21;101178.16;;;22.36;66.22
20696;BME280;10507;52.754;13.040;2023-05-25T06:50:16;101141.19;;;22.53;65.67
20696;BME280;10507;52.754;13.040;2023-05-25T06:56:32;101221.47;;;23.27;64.71
20696;BME280;10507;52.754;13.040;2023-05-25T06:59:08;101335.19;;;23.44;64.91
20696;BME280;10507;52.754;13.040;2023-05-25T07:02:07;101289.75;;;23.25;64.78
20696;BME280;10507;52.754;13.040;2023-05-25T07:05:14;101251.72;;;23.04;66.20
20696;BME280;10507;52.754;13.040;2023-05-25T07:07:44;101200.25;;;22.81;66.11
20696;BME280;10507;52.754;13.040;2023-05-25T07:10:20;101144.81;;;22.13;67.66
20696;BME280;10507;52.754;13.040;2023-05-25T07:13:01;101488.69;;;23.44;65.96
20696;BME280;10507;52.754;13.040;2023-05-25T07:15:35;101199.38;;;22.91;65.27
20696;BME280;10507;52.754;13.040;2023-05-25T07:22:01;101063.94;;;21.95;66.57
20696;BME280;10507;52.754;13.040;2023-05-25T07:27:29;101181.38;;;22.20;66.70
20696;BME280;10507;52.754;13.040;2023-05-25T07:30:10;101182.88;;;22.34;66.64
20696;BME280;10507;52.754;13.040;2023-05-25T07:32:43;101237.78;;;22.78;65.73
20696;BME280;10507;52.754;13.040;2023-05-25T07:35:26;101224.84;;;22.41;66.52
20696;BME280;10507;52.754;13.040;2023-05-25T07:37:57;101156.66;;;21.92;66.92
20696;BME280;10507;52.754;13.040;2023-05-25T07:40:26;100923.84;;;21.12;67.32
20696;BME280;10507;52.754;13.040;2023-05-25T07:42:57;101192.09;;;21.08;69.43
20696;BME280;10507;52.754;13.040;2023-05-25T07:45:36;101351.59;;;21.27;70.30
20696;BME280;10507;52.754;13.040;2023-05-25T07:48:10;101366.09;;;22.02;67.71
20696;BME280;10507;52.754;13.040;2023-05-25T07:50:53;101490.78;;;22.91;66.81
20696;BME280;10507;52.754;13.040;2023-05-25T07:53:21;101204.38;;;21.75;67.88
20696;BME280;10507;52.754;13.040;2023-05-25T07:55:56;101297.34;;;22.52;65.63
20696;BME280;10507;52.754;13.040;2023-05-25T07:58:36;101299.41;;;22.69;65.18
20696;BME280;10507;52.754;13.040;2023-05-25T08:01:11;101317.72;;;22.67;65.55
20696;BME280;10507;52.754;13.040;2023-05-25T08:03:43;101151.91;;;21.75;66.76
20696;BME280;10507;52.754;13.040;2023-05-25T08:06:18;101336.00;;;21.73;68.26
20696;BME280;10507;52.754;13.040;2023-05-25T08:08:47;101254.28;;;21.44;68.19
20696;BME280;10507;52.754;13.040;2023-05-25T08:11:22;101262.28;;;21.13;68.51
20696;BME280;10507;52.754;13.040;2023-05-25T08:14:08;101234.97;;;21.47;67.21
20696;BME280;10507;52.754;13.040;2023-05-25T08:16:40;101155.97;;;21.17;66.84
20696;BME280;10507;52.754;13.040;2023-05-25T08:19:15;101129.56;;;20.77;68.09
20696;BME280;10507;52.754;13.040;2023-05-25T08:21:47;101253.84;;;20.63;69.46
20696;BME280;10507;52.754;13.040;2023-05-25T08:24:19;101314.38;;;20.63;69.67
20696;BME280;10507;52.754;13.040;2023-05-25T08:26:51;101159.22;;;19.36;71.76
20696;BME280;10507;52.754;13.040;2023-05-25T08:29:27;101293.94;;;19.21;73.16
20696;BME280;10507;52.754;13.040;2023-05-25T08:31:58;101415.72;;;18.97;74.98
20696;BME280;10507;52.754;13.040;2023-05-25T08:34:32;101300.88;;;18.51;75.23
20696;BME280;10507;52.754;13.040;2023-05-25T08:37:09;101487.16;;;19.07;74.95
20696;BME280;10507;52.754;13.040;2023-05-25T08:39:37;101538.41;;;19.47;74.94
20696;BME280;10507;52.754;13.040;2023-05-25T08:42:06;101528.44;;;19.47;74.21
20696;BME280;10507;52.754;13.040;2023-05-25T08:44:38;101398.66;;;19.20;73.91
20696;BME280;10507;52.754;13.040;2023-05-25T08:47:11;101314.03;;;18.81;74.06
20696;BME280;10507;52.754;13.040;2023-05-25T08:49:43;101474.84;;;18.39;76.53
20696;BME280;10507;52.754;13.040;2023-05-25T08:52:13;101453.44;;;17.96;77.85
20696;BME280;10507;52.754;13.040;2023-05-25T08:54:49;101536.59;;;18.45;77.19
20696;BME280;10507;52.754;13.040;2023-05-25T08:57:21;101515.53;;;18.50;76.35
20696;BME280;10507;52.754;13.040;2023-05-25T09:00:02;101405.78;;;17.82;77.59
20696;BME280;10507;52.754;13.040;2023-05-25T09:02:44;101521.81;;;18.11;77.65
20696;BME280;10507;52.754;13.040;2023-05-25T09:05:19;101600.63;;;18.44;77.59
20696;BME280;10507;52.754;13.040;2023-05-25T09:07:50;101575.34;;;17.91;78.78
20696;BME280;10507;52.754;13.040;2023-05-25T09:10:27;101554.97;;;18.00;78.37
20696;BME280;10507;52.754;13.040;2023-05-25T09:12:58;101661.50;;;18.37;78.86
20696;BME280;10507;52.754;13.040;2023-05-25T09:15:45;101528.56;;;17.91;78.40
20696;BME280;10507;52.754;13.040;2023-05-25T09:18:20;101579.03;;;17.90;78.98
20696;BME280;10507;52.754;13.040;2023-05-25T09:20:51;101628.53;;;17.76;79.94
20696;BME280;10507;52.754;13.040;2023-05-25T09:23:24;101610.28;;;17.94;79.17
20696;BME280;10507;52.754;13.040;2023-05-25T09:25:57;101705.38;;;18.55;79.39
20696;BME280;10507;52.754;13.040;2023-05-25T09:28:27;101668.19;;;18.59;78.26
20696;BME280;10507;52.754;13.040;2023-05-25T09:30:57;101657.91;;;18.91;77.00
20696;BME280;10507;52.754;13.040;2023-05-25T09:33:31;101650.66;;;19.04;77.06
20696;BME280;10507;52.754;13.040;2023-05-25T09:36:11;101599.97;;;18.81;77.28
20696;BME280;10507;52.754;13.040;2023-05-25T09:38:47;101642.75;;;19.14;76.50
20696;BME280;10507;52.754;13.040;2023-05-25T09:41:18;101597.91;;;19.23;75.48
20696;BME280;10507;52.754;13.040;2023-05-25T09:43:56;101579.31;;;18.93;76.06
20696;BME280;10507;52.754;13.040;2023-05-25T09:46:37;101644.47;;;19.28;76.09
20696;BME280;10507;52.754;13.040;2023-05-25T09:49:09;101543.91;;;19.08;75.88
20696;BME280;10507;52.754;13.040;2023-05-25T09:51:38;101593.50;;;19.09;76.20
20696;BME280;10507;52.754;13.040;2023-05-25T09:54:12;101519.88;;;18.91;75.96
20696;BME280;10507;52.754;13.040;2023-05-25T09:56:44;101582.44;;;19.12;75.64
20696;BME280;10507;52.754;13.040;2023-05-25T09:59:17;101505.69;;;18.75;76.06
20696;BME280;10507;52.754;13.040;2023-05-25T10:01:49;101616.13;;;18.95;76.69
20696;BME280;10507;52.754;13.040;2023-05-25T10:04:21;101573.03;;;19.05;75.43
20696;BME280;10507;52.754;13.040;2023-05-25T10:06:50;101480.66;;;18.97;74.87
20696;BME280;10507;52.754;13.040;2023-05-25T10:09:23;101603.47;;;19.08;76.27
20696;BME280;10507;52.754;13.040;2023-05-25T10:11:58;101639.50;;;19.35;75.81
20696;BME280;10507;52.754;13.040;2023-05-25T10:14:29;101551.44;;;19.29;75.21
20696;BME280;10507;52.754;13.040;2023-05-25T10:17:03;101540.44;;;18.81;76.83
20696;BME280;10507;52.754;13.040;2023-05-25T10:19:36;101533.03;;;18.57;77.00
20696;BME280;10507;52.754;13.040;2023-05-25T10:22:13;101461.69;;;17.67;78.49
20696;BME280;10507;52.754;13.040;2023-05-25T10:24:56;101599.50;;;17.94;79.50
20696;BME280;10507;52.754;13.040;2023-05-25T10:27:28;101672.91;;;17.86;81.32
20696;BME280;10507;52.754;13.040;2023-05-25T10:30:00;101548.97;;;17.67;79.86
20696;BME280;10507;52.754;13.040;2023-05-25T10:32:33;101686.84;;;18.22;80.04
20696;BME280;10507;52.754;13.040;2023-05-25T10:35:10;101749.66;;;18.81;79.31
20696;BME280;10507;52.754;13.040;2023-05-25T10:37:41;101650.72;;;18.77;77.35
20696;BME280;10507;52.754;13.040;2023-05-25T10:40:11;101643.06;;;18.84;77.56
20696;BME280;10507;52.754;13.040;2023-05-25T10:42:41;101643.59;;;18.89;76.97
20696;BME280;10507;52.754;13.040;2023-05-25T10:45:09;101707.19;;;19.35;76.47
20696;BME280;10507;52.754;13.040;2023-05-25T10:47:40;101674.94;;;19.44;76.07
20696;BME280;10507;52.754;13.040;2023-05-25T10:50:20;101572.59;;;19.24;75.09
20696;BME280;10507;52.754;13.040;2023-05-25T10:53:01;101529.69;;;19.18;75.41
20696;BME280;10507;52.754;13.040;2023-05-25T10:55:41;101513.78;;;18.75;76.94
20696;BME280;10507;52.754;13.040;2023-05-25T10:58:14;101544.69;;;17.92;79.08
20696;BME280;10507;52.754;13.040;2023-05-25T11:00:56;101723.47;;;18.55;80.01
20696;BME280;10507;52.754;13.040;2023-05-25T11:03:48;101609.22;;;18.24;78.84
20696;BME280;10507;52.754;13.040;2023-05-25T11:06:21;101565.44;;;17.92;79.59
20696;BME280;10507;52.754;13.040;2023-05-25T11:08:53;101675.63;;;18.28;79.59
20696;BME280;10507;52.754;13.040;2023-05-25T11:12:02;101680.63;;;18.61;78.30
20696;BME280;10507;52.754;13.040;2023-05-25T11:14:33;101597.19;;;18.55;77.48
20696;BME280;10507;52.754;13.040;2023-05-25T11:17:12;101604.91;;;18.61;77.31
20696;BME280;10507;52.754;13.040;2023-05-25T11:19:42;101737.91;;;18.95;78.53
20696;BME280;10507;52.754;13.040;2023-05-25T11:22:19;101656.28;;;18.61;78.26
20696;BME280;10507;52.754;13.040;2023-05-25T11:24:52;101590.66;;;18.45;78.08
20696;BME280;10507;52.754;13.040;2023-05-25T11:27:22;101707.25;;;18.82;78.10
20696;BME280;10507;52.754;13.040;2023-05-25T11:29:53;101551.94;;;18.44;77.38
20696;BME280;10507;52.754;13.040;2023-05-25T11:32:29;101673.47;;;18.60;78.19
20696;BME280;10507;52.754;13.040;2023-05-25T11:34:58;101641.66;;;18.51;78.24
20696;BME280;10507;52.754;13.040;2023-05-25T11:37:35;101611.00;;;18.11;78.95
20696;BME280;10507;52.754;13.040;2023-05-25T11:40:08;101644.00;;;18.16;79.69
20696;BME280;10507;52.754;13.040;2023-05-25T11:42:38;101684.59;;;18.28;79.31
20696;BME280;10507;52.754;13.040;2023-05-25T11:45:13;101650.47;;;18.40;78.50
20696;BME280;10507;52.754;13.040;2023-05-25T11:47:42;101702.13;;;18.50;78.97
20696;BME280;10507;52.754;13.040;2023-05-25T11:50:14;101693.78;;;18.53;78.94
20696;BME280;10507;52.754;13.040;2023-05-25T11:52:48;101653.69;;;18.33;79.46
20696;BME280;10507;52.754;13.040;2023-05-25T11:55:16;101674.72;;;18.42;79.37
20696;BME280;10507;52.754;13.040;2023-05-25T11:57:55;101670.84;;;18.46;78.94
20696;BME280;10507;52.754;13.040;2023-05-25T12:00:27;101712.19;;;18.48;79.95
20696;BME280;10507;52.754;13.040;2023-05-25T12:02:56;101738.72;;;18.83;79.35
20696;BME280;10507;52.754;13.040;2023-05-25T12:05:26;101677.78;;;18.50;79.78
20696;BME280;10507;52.754;13.040;2023-05-25T12:08:09;101587.91;;;18.19;79.07
20696;BME280;10507;52.754;13.040;2023-05-25T12:10:50;101668.22;;;18.44;78.79
20696;BME280;10507;52.754;13.040;2023-05-25T12:13:39;101594.84;;;18.23;79.13
20696;BME280;10507;52.754;13.040;2023-05-25T12:16:12;101719.28;;;18.63;79.12
20696;BME280;10507;52.754;13.040;2023-05-25T12:18:43;101716.88;;;18.86;78.47
20696;BME280;10507;52.754;13.040;2023-05-25T12:21:12;101523.28;;;18.42;76.63
20696;BME280;10507;52.754;13.040;2023-05-25T12:23:45;101565.38;;;18.46;76.99
20696;BME280;10507;52.754;13.040;2023-05-25T12:26:22;101525.97;;;18.29;77.39
20696;BME280;10507;52.754;13.040;2023-05-25T12:28:58;101589.84;;;18.17;78.71
20696;BME280;10507;52.754;13.040;2023-05-25T12:31:28;101611.91;;;18.51;76.80
20696;BME280;10507;52.754;13.040;2023-05-25T12:34:07;101635.41;;;18.63;77.34
20696;BME280;10507;52.754;13.040;2023-05-25T12:36:38;101669.13;;;18.85;76.81
20696;BME280;10507;52.754;13.040;2023-05-25T12:39:09;101523.50;;;18.52;76.26
20696;BME280;10507;52.754;13.040;2023-05-25T12:41:49;101599.25;;;18.64;77.21
20696;BME280;10507;52.754;13.040;2023-05-25T12:44:26;101617.94;;;18.82;76.31
20696;BME280;10507;52.754;13.040;2023-05-25T12:47:09;101523.56;;;18.77;75.08
20696;BME280;10507;52.754;13.040;2023-05-25T12:49:42;101493.56;;;18.55;75.35
20696;BME280;10507;52.754;13.040;2023-05-25T12:52:31;101485.88;;;18.48;75.87
20696;BME280;10507;52.754;13.040;2023-05-25T12:55:20;101567.81;;;18.89;75.74
20696;BME280;10507;52.754;13.040;2023-05-25T12:57:48;101556.25;;;19.00;75.39
20696;BME280;10507;52.754;13.040;2023-05-25T13:00:22;101473.41;;;18.72;74.71
20696;BME280;10507;52.754;13.040;2023-05-25T13:02:55;101437.53;;;18.57;74.65
20696;BME280;10507;52.754;13.040;2023-05-25T13:05:28;101546.94;;;18.91;74.88
20696;BME280;10507;52.754;13.040;2023-05-25T13:07:57;101543.81;;;18.97;75.20
20696;BME280;10507;52.754;13.040;2023-05-25T13:10:30;101550.59;;;19.16;74.49
20696;BME280;10507;52.754;13.040;2023-05-25T13:13:01;101558.59;;;19.30;74.25
20696;BME280;10507;52.754;13.040;2023-05-25T13:15:33;101533.75;;;19.49;73.21
20696;BME280;10507;52.754;13.040;2023-05-25T13:18:01;101447.38;;;19.20;73.24
20696;BME280;10507;52.754;13.040;2023-05-25T13:20:31;101475.56;;;19.18;74.01
20696;BME280;10507;52.754;13.040;2023-05-25T13:23:06;101516.44;;;19.39;73.75